createdAt,value
2018-12-17T00:00:15.652Z,18.73
2018-12-17T00:02:44.230Z,17.60
2018-12-17T00:05:11.849Z,17.07
2018-12-17T00:07:39.513Z,18.97
2018-12-17T00:10:07.244Z,19.10
2018-12-17T00:12:34.901Z,20.57
2018-12-17T00:15:04.284Z,16.47
2018-12-17T00:17:32.756Z,18.80
2018-12-17T00:20:01.665Z,19.03
2018-12-17T00:22:31.771Z,18.00
2018-12-17T00:25:00.485Z,21.03
2018-12-17T00:27:28.919Z,20.73
2018-12-17T00:29:57.344Z,20.33
2018-12-17T00:32:24.986Z,17.70
2018-12-17T00:34:53.390Z,18.43
2018-12-17T00:37:21.029Z,16.97
2018-12-17T00:39:49.592Z,19.00
2018-12-17T00:42:17.214Z,18.00
2018-12-17T00:44:44.883Z,19.13
2018-12-17T00:47:13.447Z,18.93
2018-12-17T00:49:41.085Z,18.60
2018-12-17T00:52:08.723Z,17.93
2018-12-17T00:54:36.381Z,18.40
2018-12-17T00:57:04.090Z,19.70
2018-12-17T00:59:31.761Z,21.00
2018-12-17T01:01:59.393Z,18.53
2018-12-17T01:04:27.032Z,18.73
2018-12-17T01:06:54.663Z,21.33
2018-12-17T01:09:22.290Z,19.40
2018-12-17T01:11:49.919Z,18.87
2018-12-17T01:14:17.557Z,20.20
2018-12-17T01:16:45.197Z,17.98
2018-12-17T01:19:12.829Z,18.02
2018-12-17T01:21:40.742Z,18.80
2018-12-17T01:24:08.533Z,15.32
2018-12-17T01:26:37.239Z,17.27
2018-12-17T01:29:04.870Z,18.93
2018-12-17T01:31:33.711Z,17.90
2018-12-17T01:34:01.907Z,18.33
2018-12-17T01:36:29.540Z,18.80
2018-12-17T01:38:57.167Z,17.67
2018-12-17T01:41:24.921Z,18.10
2018-12-17T01:43:52.593Z,18.50
2018-12-17T01:46:20.224Z,21.57
2018-12-17T01:48:47.853Z,18.97
2018-12-17T01:51:15.492Z,18.47
2018-12-17T01:53:43.117Z,19.07
2018-12-17T01:56:10.741Z,18.60
2018-12-17T01:58:38.379Z,18.10
2018-12-17T02:01:06.014Z,18.97
2018-12-17T02:03:40.212Z,18.20
2018-12-17T02:06:07.843Z,18.80
2018-12-17T02:08:35.837Z,18.20
2018-12-17T02:11:03.729Z,18.10
2018-12-17T02:13:31.995Z,20.60
2018-12-17T02:15:59.710Z,19.47
2018-12-17T02:18:27.347Z,20.30
2018-12-17T02:20:54.997Z,17.93
2018-12-17T02:23:22.627Z,17.63
2018-12-17T02:25:51.094Z,18.70
2018-12-17T02:28:18.724Z,18.40
2018-12-17T02:30:46.362Z,20.80
2018-12-17T02:33:13.992Z,17.20
2018-12-17T02:35:41.631Z,17.87
2018-12-17T02:38:09.270Z,19.47
2018-12-17T02:40:36.915Z,18.80
2018-12-17T02:43:04.522Z,19.43
2018-12-17T02:45:32.484Z,18.17
2018-12-17T02:48:01.772Z,17.90
2018-12-17T02:50:29.403Z,18.17
2018-12-17T02:52:57.032Z,17.40
2018-12-17T02:55:25.591Z,19.63
2018-12-17T02:57:53.221Z,18.63
2018-12-17T03:00:20.840Z,18.70
2018-12-17T03:02:48.473Z,18.50
2018-12-17T03:05:16.150Z,19.83
2018-12-17T03:07:43.792Z,18.40
2018-12-17T03:10:11.502Z,18.87
2018-12-17T03:12:39.924Z,18.87
2018-12-17T03:15:07.705Z,19.13
2018-12-17T03:17:35.348Z,19.40
2018-12-17T03:20:03.056Z,19.43
2018-12-17T03:22:31.321Z,18.83
2018-12-17T03:24:58.942Z,18.03
2018-12-17T03:27:27.527Z,19.60
2018-12-17T03:29:55.150Z,18.53
2018-12-17T03:32:22.786Z,19.90
2018-12-17T03:34:50.430Z,20.53
2018-12-17T03:37:18.821Z,19.57
2018-12-17T03:39:46.458Z,17.30
2018-12-17T03:42:14.089Z,18.53
2018-12-17T03:44:41.721Z,19.30
2018-12-17T03:47:09.359Z,20.00
2018-12-17T03:49:36.998Z,19.00
2018-12-17T03:52:04.655Z,19.40
2018-12-17T03:54:33.165Z,18.60
2018-12-17T03:57:01.551Z,18.00
2018-12-17T03:59:31.149Z,18.00
2018-12-17T04:01:58.788Z,18.10
2018-12-17T04:04:27.230Z,18.40
2018-12-17T04:06:55.676Z,17.10
2018-12-17T04:09:24.121Z,20.67
2018-12-17T04:11:52.568Z,18.20
2018-12-17T04:14:20.243Z,21.17
2018-12-17T04:16:47.891Z,20.67
2018-12-17T04:19:16.533Z,18.87
2018-12-17T04:21:44.171Z,17.40
2018-12-17T04:24:11.829Z,19.93
2018-12-17T04:26:39.464Z,18.20
2018-12-17T04:29:07.328Z,19.17
2018-12-17T04:31:35.512Z,18.77
2018-12-17T04:34:03.143Z,18.00
2018-12-17T04:36:31.683Z,18.50
2018-12-17T04:38:59.301Z,17.80
2018-12-17T04:41:27.007Z,17.97
2018-12-17T04:43:55.554Z,18.23
2018-12-17T04:46:23.221Z,18.20
2018-12-17T04:48:50.901Z,19.43
2018-12-17T04:51:18.623Z,20.13
2018-12-17T04:53:47.210Z,20.03
2018-12-17T04:56:15.767Z,19.13
2018-12-17T04:58:44.437Z,17.87
2018-12-17T05:01:12.061Z,19.90
2018-12-17T05:03:39.689Z,20.50
2018-12-17T05:06:07.390Z,18.33
2018-12-17T05:08:35.004Z,20.43
2018-12-17T05:11:03.466Z,18.60
2018-12-17T05:13:31.977Z,18.63
2018-12-17T05:15:59.610Z,21.07
2018-12-17T05:18:28.098Z,18.70
2018-12-17T05:20:56.677Z,20.20
2018-12-17T05:23:25.212Z,18.00
2018-12-17T05:25:53.667Z,19.90
2018-12-17T05:28:22.203Z,18.20
2018-12-17T05:30:49.835Z,20.63
2018-12-17T05:33:18.177Z,18.73
2018-12-17T05:35:45.804Z,19.97
2018-12-17T05:38:14.342Z,19.30
2018-12-17T05:40:41.963Z,17.37
2018-12-17T05:43:10.375Z,19.03
2018-12-17T05:45:39.012Z,18.77
2018-12-17T05:48:07.512Z,19.77
2018-12-17T05:50:35.319Z,18.13
2018-12-17T05:53:02.965Z,18.97
2018-12-17T05:55:31.883Z,19.23
2018-12-17T05:58:00.460Z,17.83
2018-12-17T06:00:28.189Z,17.63
2018-12-17T06:02:55.828Z,20.17
2018-12-17T06:05:23.452Z,19.60
2018-12-17T06:07:51.078Z,17.00
2018-12-17T06:10:19.608Z,17.87
2018-12-17T06:12:47.234Z,20.97
2018-12-17T06:15:15.765Z,19.20
2018-12-17T06:17:44.212Z,19.60
2018-12-17T06:20:12.563Z,19.30
2018-12-17T06:22:41.005Z,20.33
2018-12-17T06:25:09.432Z,19.00
2018-12-17T06:27:38.638Z,20.07
2018-12-17T06:30:06.430Z,20.20
2018-12-17T06:32:34.047Z,19.97
2018-12-17T06:35:02.446Z,19.13
2018-12-17T06:37:31.995Z,20.60
2018-12-17T06:39:59.635Z,19.47
2018-12-17T06:42:28.217Z,17.93
2018-12-17T06:44:55.839Z,21.80
2018-12-17T06:47:24.271Z,19.97
2018-12-17T06:49:51.903Z,18.97
2018-12-17T06:52:20.332Z,18.70
2018-12-17T06:54:54.599Z,17.87
2018-12-17T06:57:17.686Z,18.63
2018-12-17T06:59:46.160Z,19.53
2018-12-17T07:02:15.092Z,18.67
2018-12-17T07:04:42.713Z,18.70
2018-12-17T07:07:11.266Z,19.20
2018-12-17T07:09:38.892Z,16.73
2018-12-17T07:12:07.549Z,19.50
2018-12-17T07:14:36.636Z,19.93
2018-12-17T07:17:05.473Z,19.93
2018-12-17T07:19:34.028Z,20.07
2018-12-17T07:22:02.568Z,21.20
2018-12-17T07:24:30.468Z,20.67
2018-12-17T07:26:58.086Z,19.73
2018-12-17T07:29:26.627Z,22.37
2018-12-17T07:31:55.190Z,19.20
2018-12-17T07:34:23.728Z,20.83
2018-12-17T07:36:52.360Z,20.07
2018-12-17T07:39:21.266Z,19.13
2018-12-17T07:41:49.858Z,22.10
2018-12-17T07:44:18.259Z,20.00
2018-12-17T07:46:45.885Z,18.80
2018-12-17T07:49:14.377Z,19.43
2018-12-17T07:51:42.004Z,19.00
2018-12-17T07:54:10.550Z,19.93
2018-12-17T07:56:39.081Z,18.27
2018-12-17T07:59:07.509Z,19.80
2018-12-17T08:01:36.078Z,21.73
2018-12-17T08:04:04.568Z,21.80
2018-12-17T08:06:32.876Z,20.17
2018-12-17T08:09:00.529Z,20.30
2018-12-17T08:11:29.010Z,21.30
2018-12-17T08:13:57.587Z,21.03
2018-12-17T08:16:26.176Z,21.30
2018-12-17T08:18:55.602Z,18.37
2018-12-17T08:21:24.043Z,23.13
2018-12-17T08:23:51.674Z,20.33
2018-12-17T08:26:19.301Z,19.20
2018-12-17T08:28:47.857Z,20.30
2018-12-17T08:31:15.476Z,20.77
2018-12-17T08:33:44.048Z,21.07
2018-12-17T08:36:11.706Z,22.00
2018-12-17T08:38:40.163Z,18.90
2018-12-17T08:41:07.786Z,21.97
2018-12-17T08:43:35.406Z,20.07
2018-12-17T08:46:03.025Z,19.97
2018-12-17T08:48:31.702Z,20.53
2018-12-17T08:51:00.552Z,18.97
2018-12-17T08:53:28.994Z,21.70
2018-12-17T08:55:57.451Z,19.23
2018-12-17T08:58:25.077Z,20.77
2018-12-17T09:00:53.651Z,20.70
2018-12-17T09:03:21.301Z,22.47
2018-12-17T09:05:49.737Z,21.30
2018-12-17T09:08:17.398Z,20.10
2018-12-17T09:10:45.012Z,22.87
2018-12-17T09:13:13.595Z,21.83
2018-12-17T09:15:41.907Z,19.40
2018-12-17T09:18:09.598Z,21.77
2018-12-17T09:20:37.999Z,22.00
2018-12-17T09:23:05.690Z,20.33
2018-12-17T09:25:34.115Z,21.00
2018-12-17T09:28:01.774Z,23.33
2018-12-17T09:30:29.456Z,21.23
2018-12-17T09:32:57.990Z,19.97
2018-12-17T09:35:25.621Z,21.80
2018-12-17T09:37:54.244Z,21.37
2018-12-17T09:40:21.903Z,22.50
2018-12-17T09:42:50.442Z,19.77
2018-12-17T09:45:18.970Z,20.53
2018-12-17T09:47:46.622Z,21.93
2018-12-17T09:50:14.396Z,21.00
2018-12-17T09:52:42.089Z,20.40
2018-12-17T09:55:09.881Z,21.17
2018-12-17T09:57:37.963Z,23.17
2018-12-17T10:00:07.172Z,22.80
2018-12-17T10:02:34.807Z,21.23
2018-12-17T10:05:03.169Z,20.57
2018-12-17T10:07:31.581Z,19.97
2018-12-17T10:09:59.203Z,21.67
2018-12-17T10:12:26.830Z,19.20
2018-12-17T10:14:54.451Z,23.00
2018-12-17T10:17:22.081Z,20.67
2018-12-17T10:19:49.712Z,21.57
2018-12-17T10:22:18.164Z,23.57
2018-12-17T10:24:45.819Z,22.17
2018-12-17T10:27:13.443Z,21.83
2018-12-17T10:29:41.065Z,22.67
2018-12-17T10:32:08.690Z,22.67
2018-12-17T10:34:36.309Z,23.70
2018-12-17T10:37:03.950Z,23.20
2018-12-17T10:39:31.696Z,23.30
2018-12-17T10:41:59.381Z,20.67
2018-12-17T10:44:28.164Z,21.80
2018-12-17T10:46:56.023Z,24.27
2018-12-17T10:49:23.645Z,21.63
2018-12-17T10:51:51.281Z,22.63
2018-12-17T10:54:18.880Z,20.60
2018-12-17T10:56:46.516Z,19.87
2018-12-17T10:59:14.119Z,23.30
2018-12-17T11:01:48.197Z,20.90
2018-12-17T11:04:17.917Z,21.83
2018-12-17T11:06:45.845Z,21.93
2018-12-17T11:09:13.475Z,21.77
2018-12-17T11:11:41.088Z,20.70
2018-12-17T11:14:09.051Z,21.70
2018-12-17T11:16:36.772Z,19.80
2018-12-17T11:19:04.471Z,20.53
2018-12-17T11:21:33.127Z,22.27
2018-12-17T11:24:01.577Z,22.67
2018-12-17T11:26:30.716Z,22.40
2018-12-17T11:28:58.500Z,24.60
2018-12-17T11:31:26.987Z,24.27
2018-12-17T11:33:54.716Z,20.83
2018-12-17T11:36:23.340Z,21.60
2018-12-17T11:38:50.997Z,21.23
2018-12-17T11:41:24.472Z,20.47
2018-12-17T11:43:52.890Z,21.80
2018-12-17T11:46:20.487Z,22.93
2018-12-17T11:48:49.191Z,21.87
2018-12-17T11:51:16.821Z,22.27
2018-12-17T11:53:45.359Z,23.73
2018-12-17T11:56:12.989Z,25.23
2018-12-17T11:58:40.594Z,22.30
2018-12-17T12:01:10.265Z,21.97
2018-12-17T12:03:38.590Z,21.30
2018-12-17T12:06:06.216Z,23.70
2018-12-17T12:08:34.807Z,23.73
2018-12-17T12:11:03.443Z,20.40
2018-12-17T12:13:32.749Z,21.80
2018-12-17T12:16:01.752Z,20.10
2018-12-17T12:18:30.457Z,21.27
2018-12-17T12:20:58.109Z,23.30
2018-12-17T12:23:25.782Z,22.67
2018-12-17T12:25:54.208Z,18.50
2018-12-17T12:28:21.840Z,23.47
2018-12-17T12:30:50.444Z,22.07
2018-12-17T12:33:18.126Z,20.60
2018-12-17T12:35:45.748Z,21.10
2018-12-17T12:38:14.169Z,22.37
2018-12-17T12:40:41.799Z,22.63
2018-12-17T12:43:09.459Z,21.10
2018-12-17T12:45:38.003Z,23.00
2018-12-17T12:48:05.623Z,21.30
2018-12-17T12:50:34.188Z,25.17
2018-12-17T12:53:02.661Z,21.33
2018-12-17T12:55:30.597Z,20.20
2018-12-17T12:58:03.576Z,21.90
2018-12-17T13:00:28.377Z,19.30
2018-12-17T13:02:56.913Z,20.67
2018-12-17T13:05:25.384Z,20.17
2018-12-17T13:07:53.005Z,20.97
2018-12-17T13:10:20.635Z,21.33
2018-12-17T13:12:48.240Z,19.27
2018-12-17T13:15:15.941Z,21.37
2018-12-17T13:17:43.557Z,19.60
2018-12-17T13:20:11.967Z,21.00
2018-12-17T13:22:39.614Z,21.33
2018-12-17T13:25:09.369Z,21.80
2018-12-17T13:27:37.186Z,19.07
2018-12-17T13:30:06.671Z,21.73
2018-12-17T13:32:34.313Z,20.60
2018-12-17T13:35:02.627Z,20.43
2018-12-17T13:37:30.639Z,21.03
2018-12-17T13:39:58.276Z,21.63
2018-12-17T13:42:25.900Z,20.07
2018-12-17T13:44:53.605Z,21.97
2018-12-17T13:47:21.229Z,21.57
2018-12-17T13:49:48.887Z,21.03
2018-12-17T13:52:23.165Z,21.20
2018-12-17T13:54:51.588Z,19.73
2018-12-17T13:57:19.210Z,20.87
2018-12-17T13:59:47.766Z,21.27
2018-12-17T14:02:16.008Z,23.30
2018-12-17T14:04:44.490Z,24.67
2018-12-17T14:07:12.256Z,23.63
2018-12-17T14:09:41.857Z,22.40
2018-12-17T14:12:09.472Z,23.00
2018-12-17T14:14:38.046Z,21.30
2018-12-17T14:17:11.302Z,20.90
2018-12-17T14:19:40.910Z,21.27
2018-12-17T14:22:09.463Z,23.20
2018-12-17T14:24:37.164Z,19.47
2018-12-17T14:27:04.799Z,21.80
2018-12-17T14:29:32.760Z,21.67
2018-12-17T14:32:01.611Z,24.67
2018-12-17T14:34:29.240Z,22.60
2018-12-17T14:36:57.683Z,21.97
2018-12-17T14:39:26.124Z,23.50
2018-12-17T14:41:53.739Z,23.97
2018-12-17T14:44:26.853Z,21.57
2018-12-17T14:46:58.395Z,22.60
2018-12-17T14:49:26.312Z,22.37
2018-12-17T14:51:53.934Z,22.17
2018-12-17T14:54:22.399Z,21.60
2018-12-17T14:56:50.028Z,22.93
2018-12-17T14:59:17.678Z,21.60
2018-12-17T15:04:26.976Z,22.37
2018-12-17T15:06:54.621Z,22.77
2018-12-17T15:09:22.490Z,24.50
2018-12-17T15:11:50.117Z,23.27
2018-12-17T15:14:18.662Z,26.07
2018-12-17T15:16:46.291Z,24.20
2018-12-17T15:19:14.722Z,23.67
2018-12-17T15:21:42.361Z,22.63
2018-12-17T15:24:10.027Z,23.00
2018-12-17T15:26:37.657Z,24.57
2018-12-17T15:29:05.370Z,21.03
2018-12-17T15:31:33.016Z,23.57
2018-12-17T15:34:01.662Z,24.00
2018-12-17T15:36:30.567Z,23.10
2018-12-17T15:38:58.193Z,23.70
2018-12-17T15:41:26.654Z,22.23
2018-12-17T15:43:55.168Z,23.03
2018-12-17T15:46:22.836Z,22.90
2018-12-17T15:48:50.459Z,23.50
2018-12-17T15:51:18.921Z,23.70
2018-12-17T15:53:46.548Z,22.73
2018-12-17T15:56:15.021Z,25.30
2018-12-17T15:58:43.370Z,23.90
2018-12-17T16:01:11.040Z,21.50
2018-12-17T16:03:39.478Z,23.40
2018-12-17T16:06:07.135Z,22.43
2018-12-17T16:08:34.798Z,22.90
2018-12-17T16:11:03.373Z,23.10
2018-12-17T16:13:31.936Z,23.07
2018-12-17T16:16:00.524Z,23.70
2018-12-17T16:18:29.016Z,23.20
2018-12-17T16:20:56.643Z,23.50
2018-12-17T16:23:25.326Z,23.20
2018-12-17T16:25:53.732Z,23.10
2018-12-17T16:28:21.397Z,25.03
2018-12-17T16:30:49.016Z,23.67
2018-12-17T16:33:17.605Z,23.87
2018-12-17T16:35:46.005Z,26.13
2018-12-17T16:38:14.389Z,25.50
2018-12-17T16:40:42.020Z,25.03
2018-12-17T16:43:09.695Z,22.77
2018-12-17T16:45:38.126Z,22.83
2018-12-17T16:48:06.542Z,24.00
2018-12-17T16:50:34.200Z,23.03
2018-12-17T16:53:02.145Z,22.17
2018-12-17T16:55:31.703Z,24.60
2018-12-17T16:57:59.322Z,23.03
2018-12-17T17:00:27.823Z,22.83
2018-12-17T17:02:55.447Z,26.57
2018-12-17T17:05:23.211Z,32.07
2018-12-17T17:07:51.782Z,30.00
2018-12-17T17:10:19.433Z,27.93
2018-12-17T17:12:47.072Z,26.97
2018-12-17T17:15:14.743Z,28.13
2018-12-17T17:17:43.306Z,28.07
2018-12-17T17:20:10.931Z,27.13
2018-12-17T17:22:38.562Z,26.90
2018-12-17T17:25:06.322Z,26.50
2018-12-17T17:27:33.947Z,25.67
2018-12-17T17:30:01.577Z,24.17
2018-12-17T17:32:29.347Z,23.67
2018-12-17T17:34:56.982Z,21.73
2018-12-17T17:37:24.590Z,23.30
2018-12-17T17:39:52.218Z,22.93
2018-12-17T17:42:19.858Z,23.43
2018-12-17T17:44:47.483Z,25.73
2018-12-17T17:47:15.126Z,21.53
2018-12-17T17:49:42.755Z,22.80
2018-12-17T17:52:11.385Z,23.50
2018-12-17T17:54:39.081Z,22.37
2018-12-17T17:57:06.800Z,26.83
2018-12-17T17:59:34.422Z,23.43
2018-12-17T18:02:02.767Z,24.00
2018-12-17T18:04:30.422Z,24.60
2018-12-17T18:06:58.986Z,23.87
2018-12-17T18:09:26.592Z,22.03
2018-12-17T18:11:54.215Z,23.30
2018-12-17T18:14:21.824Z,22.57
2018-12-17T18:16:49.451Z,22.87
2018-12-17T18:19:17.087Z,21.63
2018-12-17T18:21:44.712Z,22.70
2018-12-17T18:24:12.341Z,21.57
2018-12-17T18:26:39.964Z,23.67
2018-12-17T18:29:07.593Z,22.33
2018-12-17T18:31:35.306Z,23.53
2018-12-17T18:34:02.960Z,20.70
2018-12-17T18:36:31.287Z,22.00
2018-12-17T18:38:59.686Z,23.83
2018-12-17T18:41:27.485Z,22.73
2018-12-17T18:43:55.926Z,21.37
2018-12-17T18:46:23.547Z,20.90
2018-12-17T18:48:51.182Z,25.10
2018-12-17T18:51:18.801Z,22.00
2018-12-17T18:53:46.425Z,23.63
2018-12-17T18:56:14.050Z,25.40
2018-12-17T18:58:41.774Z,24.40
2018-12-17T19:01:10.217Z,23.70
2018-12-17T19:03:37.838Z,25.17
2018-12-17T19:06:05.501Z,23.90
2018-12-17T19:08:34.031Z,23.50
2018-12-17T19:11:01.707Z,22.50
2018-12-17T19:13:29.334Z,22.73
2018-12-17T19:15:56.955Z,21.73
2018-12-17T19:18:25.554Z,21.20
2018-12-17T19:20:53.202Z,22.90
2018-12-17T19:23:20.830Z,21.70
2018-12-17T19:25:48.477Z,23.10
2018-12-17T19:28:16.132Z,21.90
2018-12-17T19:30:44.637Z,22.13
2018-12-17T19:33:12.287Z,23.17
2018-12-17T19:35:39.910Z,22.87
2018-12-17T19:38:07.542Z,25.07
2018-12-17T19:40:35.177Z,22.13
2018-12-17T19:43:02.807Z,22.90
2018-12-17T19:45:30.445Z,24.77
2018-12-17T19:47:58.086Z,25.83
2018-12-17T19:50:25.715Z,25.73
2018-12-17T19:52:54.164Z,25.93
2018-12-17T19:55:22.518Z,26.53
2018-12-17T19:57:50.145Z,25.80
2018-12-17T20:00:17.774Z,25.00
2018-12-17T20:02:47.152Z,27.17
2018-12-17T20:05:15.090Z,24.00
2018-12-17T20:07:42.723Z,27.07
2018-12-17T20:10:12.486Z,26.20
2018-12-17T20:12:41.125Z,24.40
2018-12-17T20:15:09.736Z,24.33
2018-12-17T20:17:37.366Z,25.00
2018-12-17T20:20:06.567Z,23.50
2018-12-17T20:22:34.192Z,23.07
2018-12-17T20:25:02.857Z,25.87
2018-12-17T20:27:30.476Z,26.00
2018-12-17T20:29:58.103Z,24.90
2018-12-17T20:32:25.776Z,26.77
2018-12-17T20:34:54.330Z,27.17
2018-12-17T20:37:21.972Z,25.20
2018-12-17T20:39:49.810Z,26.07
2018-12-17T20:42:17.438Z,27.43
2018-12-17T20:44:45.074Z,28.53
2018-12-17T20:47:13.540Z,27.77
2018-12-17T20:49:41.172Z,25.63
2018-12-17T20:52:09.781Z,25.60
2018-12-17T20:54:37.421Z,25.23
2018-12-17T20:57:05.850Z,23.00
2018-12-17T20:59:34.393Z,24.90
2018-12-17T21:02:02.638Z,27.17
2018-12-17T21:04:30.552Z,24.13
2018-12-17T21:06:58.989Z,20.97
2018-12-17T21:09:27.340Z,20.53
2018-12-17T21:11:54.974Z,21.97
2018-12-17T21:14:23.901Z,18.23
2018-12-17T21:16:51.748Z,20.93
2018-12-17T21:19:19.372Z,21.00
2018-12-17T21:21:47.073Z,22.30
2018-12-17T21:24:14.720Z,20.37
2018-12-17T21:26:42.955Z,23.53
2018-12-17T21:29:10.657Z,21.83
2018-12-17T21:31:39.086Z,23.43
2018-12-17T21:34:06.743Z,24.60
2018-12-17T21:36:35.152Z,26.80
2018-12-17T21:39:02.906Z,25.43
2018-12-17T21:41:30.527Z,24.70
2018-12-17T21:43:59.028Z,25.33
2018-12-17T21:46:26.666Z,24.67
2018-12-17T21:48:54.291Z,26.63
2018-12-17T21:51:21.932Z,26.10
2018-12-17T21:53:49.572Z,25.43
2018-12-17T21:56:17.987Z,21.70
2018-12-17T21:58:45.607Z,22.40
2018-12-17T22:01:13.233Z,21.87
2018-12-17T22:03:40.893Z,23.27
2018-12-17T22:06:08.516Z,22.10
2018-12-17T22:08:37.063Z,23.40
2018-12-17T22:11:04.672Z,25.80
2018-12-17T22:13:33.304Z,20.97
2018-12-17T22:16:01.730Z,19.90
2018-12-17T22:18:29.392Z,20.63
2018-12-17T22:20:57.022Z,19.97
2018-12-17T22:23:24.671Z,19.80
2018-12-17T22:25:52.317Z,18.40
2018-12-17T22:28:19.937Z,21.20
2018-12-17T22:30:47.568Z,18.83
2018-12-17T22:33:19.737Z,18.73
2018-12-17T22:35:45.813Z,17.30
2018-12-17T22:38:13.441Z,17.23
2018-12-17T22:40:41.064Z,18.37
2018-12-17T22:43:08.687Z,16.47
2018-12-17T22:45:36.305Z,17.60
2018-12-17T22:48:03.999Z,20.20
2018-12-17T22:50:31.655Z,18.13
2018-12-17T22:52:59.359Z,20.10
2018-12-17T22:55:27.037Z,17.03
2018-12-17T22:57:55.649Z,17.50
2018-12-17T23:00:23.848Z,18.33
2018-12-17T23:02:51.725Z,18.60
2018-12-17T23:05:19.387Z,19.30
2018-12-17T23:07:47.953Z,19.43
2018-12-17T23:10:27.429Z,17.57
2018-12-17T23:13:07.019Z,17.20
2018-12-17T23:15:46.668Z,18.23
2018-12-17T23:18:14.366Z,16.10
2018-12-17T23:20:42.879Z,14.53
2018-12-17T23:23:10.965Z,16.77
2018-12-17T23:25:38.629Z,16.53
2018-12-17T23:28:08.992Z,18.90
2018-12-17T23:30:36.739Z,16.43
2018-12-17T23:33:04.386Z,16.10
2018-12-17T23:35:32.686Z,16.07
2018-12-17T23:38:00.490Z,15.90
2018-12-17T23:40:28.101Z,15.73
2018-12-17T23:42:55.838Z,14.27
2018-12-17T23:45:23.478Z,15.00
2018-12-17T23:47:51.980Z,17.23
2018-12-17T23:50:19.643Z,16.47
2018-12-17T23:52:47.261Z,16.23
2018-12-17T23:55:14.919Z,16.10
2018-12-17T23:57:43.463Z,16.80
